^^
nws-alerts.php - 1.15 - 19-Aug-2013 - NWS Public Alerts
Station Historical Data
Daily Summary for March 13, 2018 Units:  Metric    English   Both
« Previous Day
Next Day »
Daily Weekly Monthly Yearly Custom
  High: Low: Average:
Temperature: 21.4 °C 4.4 °C 13.2 °C
Dew Point: 10 °C 2.2 °C 5.4 °C
Humidity: 91% 30% 62%
Wind Speed: 19.3km/h 0km/h 6.4km/h
Wind Gust: 30.6km/h - -
Wind- - SW
Pressure: 1020.9 hPa 1017.2 hPa -
Precipitation: 0 mm    
Historical Graphs
 
 
Tabular Data for March 13, 2018
Time Temperature Dew Point Pressure Wind Wind Speed Wind Gust Humidity Rainfall Rate (Hourly) Conditions
00:00 13.1 °C 9.3 °C 1017.5 hPa WNW 7.9 km/h 11.1 km/h 78% 0 mm 0.0 W/m2
00:05 13 °C 9.3 °C 1017.2 hPa NW 8 km/h 12.9 km/h 78% 0 mm 0.0 W/m2
00:10 13 °C 9.3 °C 1017.2 hPa ENE 7.2 km/h 14.8 km/h 78% 0 mm 0.0 W/m2
00:15 12.9 °C 9.2 °C 1017.2 hPa NNW 3.2 km/h 14.5 km/h 78% 0 mm 0.0 W/m2
00:20 12.9 °C 9.2 °C 1017.5 hPa NNE 9.2 km/h 21.2 km/h 78% 0 mm 0.0 W/m2
00:25 12.9 °C 9.1 °C 1017.5 hPa North 9.7 km/h 16.1 km/h 78% 0 mm 0.0 W/m2
00:30 12.7 °C 9 °C 1017.5 hPa NW 5.6 km/h 5.6 km/h 78% 0 mm 0.0 W/m2
00:35 12.7 °C 8.9 °C 1017.8 hPa NNW 8 km/h 14.5 km/h 78% 0 mm 0.0 W/m2
00:40 12.6 °C 8.8 °C 1017.8 hPa NNW 8 km/h 12.9 km/h 78% 0 mm 0.0 W/m2
00:45 12.4 °C 8.7 °C 1017.8 hPa NW 4.8 km/h 12.9 km/h 78% 0 mm 0.0 W/m2
00:50 12.4 °C 8.5 °C 1017.8 hPa NNW 11.3 km/h 20.9 km/h 77% 0 mm 0.0 W/m2
00:55 12.4 °C 8.4 °C 1017.8 hPa NNW 11.3 km/h 19.3 km/h 77% 0 mm 0.0 W/m2
01:00 12.3 °C 8.4 °C 1017.8 hPa NNW 9.7 km/h 16.1 km/h 77% 0 mm 0.0 W/m2
01:05 12.3 °C 8.2 °C 1018.2 hPa NNE 6.4 km/h 13 km/h 76% 0 mm 0.0 W/m2
01:10 12.2 °C 8.1 °C 1018.2 hPa NNW 8 km/h 19.3 km/h 76% 0 mm 0.0 W/m2
01:15 12.2 °C 8.1 °C 1018.2 hPa NNW 7.4 km/h 14.8 km/h 76% 0 mm 0.0 W/m2
01:20 12.1 °C 8 °C 1018.2 hPa NNW 9.7 km/h 19.3 km/h 76% 0 mm 0.0 W/m2
01:25 12.1 °C 8 °C 1018.2 hPa NNE 9 km/h 11.1 km/h 76% 0 mm 0.0 W/m2
01:30 12 °C 7.9 °C 1018.2 hPa NNW 11.3 km/h 19.3 km/h 76% 0 mm 0.0 W/m2
01:35 12 °C 7.7 °C 1018.2 hPa NNW 9.7 km/h 16.1 km/h 75% 0 mm 0.0 W/m2
01:40 11.9 °C 7.7 °C 1018.5 hPa NNW 9.7 km/h 19.3 km/h 75% 0 mm 0.0 W/m2
01:45 11.8 °C 7.3 °C 1018.2 hPa North 8 km/h 20.9 km/h 74% 0 mm 0.0 W/m2
01:50 11.8 °C 7.2 °C 1018.5 hPa NNW 9.7 km/h 20.9 km/h 73% 0 mm 0.0 W/m2
01:55 11.8 °C 7.2 °C 1018.5 hPa NNW 12.9 km/h 25.7 km/h 73% 0 mm 0.0 W/m2
02:00 11.7 °C 6.8 °C 1018.5 hPa NNW 12.9 km/h 20.9 km/h 72% 0 mm 0.0 W/m2
02:05 11.6 °C 6.3 °C 1018.5 hPa North 12.9 km/h 20.9 km/h 70% 0 mm 0.0 W/m2
02:10 11.5 °C 5.8 °C 1018.5 hPa North 15.4 km/h 25.9 km/h 68% 0 mm 0.0 W/m2
02:15 11.4 °C 5.7 °C 1018.5 hPa North 8 km/h 16.1 km/h 68% 0 mm 0.0 W/m2
02:20 11.3 °C 5.4 °C 1018.5 hPa North 14.2 km/h 23 km/h 67% 0 mm 0.0 W/m2
02:25 11.2 °C 4.9 °C 1018.5 hPa NNW 12.9 km/h 22.5 km/h 65% 0 mm 0.0 W/m2
02:30 11.2 °C 4.2 °C 1018.5 hPa North 14.5 km/h 30.6 km/h 62% 0 mm 0.0 W/m2
02:35 11.2 °C 4.2 °C 1018.2 hPa North 11.3 km/h 22.5 km/h 62% 0 mm 0.0 W/m2
02:40 11.1 °C 3.9 °C 1018.2 hPa NNE 11.3 km/h 20.9 km/h 61% 0 mm 0.0 W/m2
02:45 11.1 °C 3.8 °C 1018.2 hPa North 9.7 km/h 20.9 km/h 61% 0 mm 0.0 W/m2
02:50 11 °C 3.8 °C 1018.2 hPa North 14.5 km/h 22.5 km/h 61% 0 mm 0.0 W/m2
02:55 10.9 °C 3.7 °C 1018.5 hPa NNE 11.3 km/h 19.3 km/h 61% 0 mm 0.0 W/m2
03:00 10.8 °C 3.8 °C 1018.2 hPa NNE 11.3 km/h 19.3 km/h 62% 0 mm 0.0 W/m2
03:05 10.7 °C 3.7 °C 1018.2 hPa NNE 8.2 km/h 16.7 km/h 62% 0 mm 0.0 W/m2
03:10 10.6 °C 3.6 °C 1018.5 hPa North 11.3 km/h 20.9 km/h 62% 0 mm 0.0 W/m2
03:15 10.5 °C 3.7 °C 1018.5 hPa NNE 3.9 km/h 13 km/h 63% 0 mm 0.0 W/m2
03:20 10.4 °C 3.7 °C 1018.2 hPa NNE 8 km/h 16.1 km/h 63% 0 mm 0.0 W/m2
03:25 10.3 °C 3.8 °C 1018.2 hPa NNW 11.7 km/h 13 km/h 64% 0 mm 0.0 W/m2
03:30 10.2 °C 3.7 °C 1018.5 hPa North 8 km/h 16.1 km/h 64% 0 mm 0.0 W/m2
03:35 10.1 °C 3.8 °C 1018.5 hPa North 1.6 km/h 11.3 km/h 65% 0 mm 0.0 W/m2
03:40 9.9 °C 3.6 °C 1018.5 hPa North 8 km/h 14.5 km/h 65% 0 mm 0.0 W/m2
03:45 9.8 °C 3.8 °C 1018.5 hPa North 1.6 km/h 14.5 km/h 66% 0 mm 0.0 W/m2
03:50 9.7 °C 3.8 °C 1018.2 hPa NE 2.9 km/h 3.7 km/h 67% 0 mm 0.0 W/m2
03:55 9.5 °C 3.7 °C 1018.2 hPa North 3.2 km/h 9.7 km/h 67% 0 mm 0.0 W/m2
04:00 9.4 °C 3.8 °C 1018.2 hPa North 4.8 km/h 9.7 km/h 68% 0 mm 0.0 W/m2
04:05 9.2 °C 3.8 °C 1018.2 hPa North 3.2 km/h 8 km/h 69% 0 mm 0.0 W/m2
04:10 9.1 °C 3.7 °C 1018.2 hPa NE 2.3 km/h 7.4 km/h 69% 0 mm 0.0 W/m2
04:15 9 °C 3.8 °C 1018.5 hPa North 3.2 km/h 8 km/h 70% 0 mm 0.0 W/m2
04:20 8.9 °C 3.7 °C 1018.5 hPa North 1.1 km/h 1.9 km/h 70% 0 mm 0.0 W/m2
04:25 8.7 °C 3.8 °C 1018.5 hPa Calm     71% 0 mm 0.0 W/m2
04:30 8.6 °C 3.6 °C 1018.5 hPa WNW 1.3 km/h 1.9 km/h 71% 0 mm 0.0 W/m2
04:35 8.4 °C 3.7 °C 1018.5 hPa Calm   1.6 km/h 72% 0 mm 0.0 W/m2
04:40 8.2 °C 3.7 °C 1018.5 hPa Calm     73% 0 mm 0.0 W/m2
04:45 8.1 °C 3.5 °C 1018.5 hPa Calm     73% 0 mm 0.0 W/m2
04:50 7.8 °C 3.5 °C 1018.5 hPa Calm     74% 0 mm 0.0 W/m2
04:55 7.8 °C 3.7 °C 1018.5 hPa Calm     75% 0 mm 0.0 W/m2
05:00 7.7 °C 3.6 °C 1018.5 hPa Calm     75% 0 mm 0.0 W/m2
05:05 7.5 °C 3.6 °C 1018.5 hPa Calm     76% 0 mm 0.0 W/m2
05:10 7.4 °C 3.7 °C 1018.5 hPa Calm     77% 0 mm 0.0 W/m2
05:15 7.4 °C 3.6 °C 1018.5 hPa Calm     77% 0 mm 0.0 W/m2
05:20 7.2 °C 3.4 °C 1018.5 hPa Calm     77% 0 mm 0.0 W/m2
05:25 6.9 °C 3.2 °C 1018.5 hPa Calm     77% 0 mm 0.0 W/m2
05:30 6.7 °C 3.3 °C 1018.8 hPa Calm     79% 0 mm 0.0 W/m2
05:35 6.4 °C 3.1 °C 1018.8 hPa Calm     79% 0 mm 0.0 W/m2
05:40 6.4 °C 3.4 °C 1018.5 hPa Calm     81% 0 mm 0.0 W/m2
05:45 6.2 °C 3.4 °C 1018.8 hPa Calm     82% 0 mm 0.0 W/m2
05:50 6 °C 3.2 °C 1018.8 hPa Calm     82% 0 mm 0.0 W/m2
05:55 6 °C 3.5 °C 1018.8 hPa Calm     84% 0 mm 0.0 W/m2
06:00 6.1 °C 3.6 °C 1018.5 hPa Calm     84% 0 mm 0.0 W/m2
06:05 6.2 °C 3.5 °C 1018.5 hPa Calm     83% 0 mm 0.0 W/m2
06:10 6.1 °C 3.6 °C 1018.8 hPa Calm     84% 0 mm 0.0 W/m2
06:15 5.9 °C 3.3 °C 1018.8 hPa Calm     83% 0 mm 0.0 W/m2
06:20 5.8 °C 3.3 °C 1018.8 hPa Calm     84% 0 mm 0.0 W/m2
06:25 5.7 °C 3.3 °C 1018.8 hPa Calm     85% 0 mm 0.0 W/m2
06:30 5.9 °C 3.6 °C 1019.2 hPa Calm     85% 0 mm 0.0 W/m2
06:35 6.3 °C 3.8 °C 1019.2 hPa Calm     84% 0 mm 0.0 W/m2
06:40 6.3 °C 3.4 °C 1019.2 hPa Calm     82% 0 mm 0.0 W/m2
06:45 6 °C 3.3 °C 1019.2 hPa Calm     83% 0 mm 0.0 W/m2
06:50 5.7 °C 3.2 °C 1019.5 hPa Calm     84% 0 mm 0.0 W/m2
06:55 5.6 °C 3.2 °C 1019.2 hPa Calm     85% 0 mm 0.0 W/m2
07:00 5.4 °C 3.3 °C 1019.2 hPa Calm     86% 0 mm 0.0 W/m2
07:05 5.3 °C 3.1 °C 1019.2 hPa Calm     86% 0 mm 0.0 W/m2
07:10 5.1 °C 2.9 °C 1019.2 hPa Calm     86% 0 mm 0.0 W/m2
07:15 5.1 °C 3.3 °C 1019.5 hPa Calm     88% 0 mm 0.0 W/m2
07:20 5 °C 3.2 °C 1019.5 hPa Calm     88% 0 mm 0.0 W/m2
07:25 4.9 °C 3.1 °C 1019.5 hPa Calm     88% 0 mm 0.0 W/m2
07:30 4.7 °C 2.8 °C 1019.5 hPa Calm     88% 0 mm 0.0 W/m2
07:35 4.6 °C 2.9 °C 1019.9 hPa Calm     89% 0 mm 0.0 W/m2
07:40 4.4 °C 2.8 °C 1019.9 hPa Calm     89% 0 mm 0.0 W/m2
07:45 4.7 °C 3.3 °C 1019.5 hPa Calm     91% 0 mm 0.0 W/m2
07:50 4.7 °C 3.2 °C 1019.9 hPa Calm     90% 0 mm 0.0 W/m2
07:55 4.7 °C 3.2 °C 1019.9 hPa Calm     90% 0 mm 0.0 W/m2
08:00 4.9 °C 3.4 °C 1019.9 hPa Calm     90% 0 mm 0.0 W/m2
08:05 5.7 °C 4.3 °C 1019.9 hPa Calm     91% 0 mm 0.0 W/m2
08:10 6.3 °C 4.9 °C 1020.2 hPa Calm     91% 0 mm 0.0 W/m2
08:15 6.9 °C 5.4 °C 1020.2 hPa Calm     90% 0 mm 0.0 W/m2
08:20 7 °C 5.2 °C 1020.2 hPa Calm     88% 0 mm 0.0 W/m2
08:25 7.3 °C 5.3 °C 1020.2 hPa Calm     87% 0 mm 0.0 W/m2
08:30 7.4 °C 5.1 °C 1020.2 hPa NW 0.6 km/h 1.8 km/h 85% 0 mm 0.0 W/m2
08:35 7.7 °C 4.9 °C 1020.2 hPa Calm   3.2 km/h 83% 0 mm 0.0 W/m2
08:40 8.1 °C 5.2 °C 1020.2 hPa NNW 0.2 km/h 3.5 km/h 82% 0 mm 0.0 W/m2
08:45 8.5 °C 5.1 °C 1020.2 hPa NNW 3.2 km/h 8 km/h 79% 0 mm 0.0 W/m2
08:50 8.9 °C 5.1 °C 1020.2 hPa NNE 3.4 km/h 11.1 km/h 77% 0 mm 0.0 W/m2
08:55 9.3 °C 5.1 °C 1020.2 hPa North 4.8 km/h 16.1 km/h 75% 0 mm 0.0 W/m2
09:00 9.6 °C 5 °C 1020.5 hPa NE 3.9 km/h 9.3 km/h 73% 0 mm 0.0 W/m2
09:05 9.9 °C 4.7 °C 1020.5 hPa North 8 km/h 16.1 km/h 70% 0 mm 0.0 W/m2
09:10 10.3 °C 5.1 °C 1020.5 hPa NW 4 km/h 11.1 km/h 70% 0 mm 0.0 W/m2
09:15 10.5 °C 5.1 °C 1020.5 hPa NNE 4.8 km/h 16.1 km/h 69% 0 mm 0.0 W/m2
09:20 10.7 °C 4.8 °C 1020.5 hPa NNW 10 km/h 16.7 km/h 67% 0 mm 0.0 W/m2
09:25 11.1 °C 4.9 °C 1020.5 hPa NNE 9.7 km/h 14.5 km/h 66% 0 mm 0.0 W/m2
09:30 11.2 °C 4.7 °C 1020.5 hPa NNE 9.7 km/h 19.3 km/h 64% 0 mm 0.0 W/m2
09:35 11.4 °C 4.3 °C 1020.5 hPa NNE 11.3 km/h 19.3 km/h 62% 0 mm 0.0 W/m2
09:40 11.8 °C 5 °C 1020.5 hPa NNE 4.8 km/h 12.9 km/h 63% 0 mm 0.0 W/m2
09:45 12.3 °C 5 °C 1020.5 hPa NNE 9.7 km/h 19.3 km/h 61% 0 mm 4.9 W/m2
09:50 12.3 °C 4.5 °C 1020.5 hPa WNW 10.3 km/h 16.7 km/h 59% 0 mm 12.2 W/m2
09:55 12.6 °C 4.3 °C 1020.5 hPa NE 11.3 km/h 20.9 km/h 57% 0 mm 24.9 W/m2
10:00 12.8 °C 4.4 °C 1020.5 hPa North 12.9 km/h 16.1 km/h 57% 0 mm 24.9 W/m2
10:05 12.8 °C 3.7 °C 1020.5 hPa North 11.3 km/h 20.9 km/h 54% 0 mm 12.2 W/m2
10:10 12.9 °C 3.6 °C 1020.5 hPa North 11.3 km/h 20.9 km/h 53% 0 mm 4.9 W/m2
10:15 13.2 °C 3.1 °C 1020.5 hPa NNE 12.9 km/h 20.9 km/h 50% 0 mm 4.9 W/m2
10:20 13.6 °C 3.3 °C 1020.5 hPa North 11.3 km/h 19.3 km/h 50% 0 mm 0.0 W/m2
10:25 13.6 °C 3.4 °C 1020.5 hPa North 11.3 km/h 20.9 km/h 50% 0 mm 384.4 W/m2
10:30 13.7 °C 3.5 °C 1020.5 hPa NE 3.2 km/h 19.3 km/h 50% 0 mm 405.3 W/m2
10:35 14 °C 3.2 °C 1020.5 hPa NNW 10.6 km/h 13 km/h 48% 0 mm 413.5 W/m2
10:40 13.9 °C 3.1 °C 1020.5 hPa NE 11.3 km/h 20.9 km/h 48% 0 mm 413.5 W/m2
10:45 14.3 °C 3.7 °C 1020.5 hPa NNE 9.7 km/h 16.1 km/h 49% 0 mm 434.4 W/m2
10:50 14.3 °C 3.2 °C 1020.9 hPa North 9.7 km/h 19.3 km/h 47% 0 mm 441.7 W/m2
10:55 14.3 °C 2.8 °C 1020.9 hPa North 4.8 km/h 16.1 km/h 46% 0 mm 443.5 W/m2
11:00 14.4 °C 2.7 °C 1020.9 hPa North 11.3 km/h 20.9 km/h 45% 0 mm 443.5 W/m2
11:05 15.1 °C 2.9 °C 1020.9 hPa WNW 11.9 km/h 14.8 km/h 44% 0 mm 441.7 W/m2
11:10 15.1 °C 2.6 °C 1020.9 hPa North 9.7 km/h 22.5 km/h 43% 0 mm 450.8 W/m2
11:15 15.3 °C 3.1 °C 1020.5 hPa NNW 8 km/h 14.5 km/h 44% 0 mm 459.9 W/m2
11:20 15.5 °C 2.9 °C 1020.9 hPa NNW 11.3 km/h 19.3 km/h 43% 0 mm 459.9 W/m2
11:25 15.6 °C 2.4 °C 1020.9 hPa NNE 14.5 km/h 20.9 km/h 41% 0 mm 457.2 W/m2
11:30 15.6 °C 3 °C 1020.5 hPa NNE 4.8 km/h 14.5 km/h 43% 0 mm 461.7 W/m2
11:35 15.7 °C 2.8 °C 1020.5 hPa North 8 km/h 22.5 km/h 42% 0 mm 461.7 W/m2
11:40 15.8 °C 3.2 °C 1020.5 hPa North 8 km/h 19.3 km/h 43% 0 mm 470.8 W/m2
11:45 15.9 °C 2.9 °C 1020.5 hPa North 9.7 km/h 16.1 km/h 42% 0 mm 469.9 W/m2
11:50 15.8 °C 2.9 °C 1020.5 hPa NE 11.3 km/h 19.3 km/h 42% 0 mm 469.0 W/m2
11:55 16 °C 3.1 °C 1020.5 hPa NE 8 km/h 16.1 km/h 42% 0 mm 469.0 W/m2
12:00 16.1 °C 2.4 °C 1020.2 hPa NNE 1.6 km/h 19.3 km/h 40% 0 mm 479.0 W/m2
12:05 15.9 °C 2.7 °C 1020.5 hPa NNE 8 km/h 19.3 km/h 41% 0 mm 477.2 W/m2
12:10 16.2 °C 2.2 °C 1020.5 hPa WNW 11.3 km/h 16.7 km/h 39% 0 mm 478.1 W/m2
12:15 16.3 °C 2.3 °C 1020.5 hPa NNW 9.7 km/h 19.3 km/h 39% 0 mm 480.8 W/m2
12:20 16.5 °C 2.8 °C 1020.5 hPa NE 6.8 km/h 9.3 km/h 40% 0 mm 480.8 W/m2
12:25 16.7 °C 2.3 °C 1020.5 hPa NE 16.1 km/h 24.1 km/h 38% 0 mm 478.1 W/m2
12:30 16.6 °C 2.9 °C 1020.2 hPa NNE 3.2 km/h 20.9 km/h 40% 0 mm 477.2 W/m2
12:35 16.9 °C 3.3 °C 1020.2 hPa NNW 3.2 km/h 14.5 km/h 40% 0 mm 487.2 W/m2
12:40 17.2 °C 2.7 °C 1020.2 hPa NW 9.7 km/h 14.5 km/h 38% 0 mm 487.2 W/m2
12:45 17.3 °C 3.2 °C 1020.2 hPa NNE 8 km/h 20.9 km/h 39% 0 mm 485.4 W/m2
12:50 17.3 °C 3.2 °C 1020.2 hPa ENE 4.3 km/h 9.3 km/h 39% 0 mm 486.3 W/m2
12:55 17.6 °C 3.4 °C 1019.9 hPa NW 4.8 km/h 11.3 km/h 39% 0 mm 490.9 W/m2
13:00 17.7 °C 3.2 °C 1019.9 hPa NE 6 km/h 18.5 km/h 38% 0 mm 489.0 W/m2
13:05 18.1 °C 3.6 °C 1019.9 hPa NNE 3.2 km/h 11.3 km/h 38% 0 mm 489.0 W/m2
13:10 18 °C 3.1 °C 1019.9 hPa NE 6 km/h 9.3 km/h 37% 0 mm 490.9 W/m2
13:15 18.3 °C 2.9 °C 1019.5 hPa NNE 4.8 km/h 12.9 km/h 36% 0 mm 487.2 W/m2
13:20 18.2 °C 2.9 °C 1019.5 hPa SSW 7.2 km/h 9.3 km/h 36% 0 mm 486.3 W/m2
13:25 18.4 °C 3.4 °C 1019.5 hPa West 3.2 km/h 11.3 km/h 37% 0 mm 485.4 W/m2
13:30 18.3 °C 2.6 °C 1019.5 hPa ENE 2.7 km/h 9.3 km/h 35% 0 mm 487.2 W/m2
13:35 18.6 °C 2.4 °C 1019.2 hPa NNW 3.2 km/h 16.1 km/h 34% 0 mm 487.2 W/m2
13:40 18.6 °C 2.4 °C 1019.2 hPa NW 4.7 km/h 8.9 km/h 34% 0 mm 485.4 W/m2
13:45 18.4 °C 2.3 °C 1018.8 hPa WNW 8 km/h 16.1 km/h 34% 0 mm 481.8 W/m2
13:50 18.9 °C 3.1 °C 1018.8 hPa WNW 3.2 km/h 12.9 km/h 35% 0 mm 487.2 W/m2
13:55 19.2 °C 2.9 °C 1019.2 hPa NNW 8 km/h 12.9 km/h 34% 0 mm 487.2 W/m2
14:00 19.2 °C 3.4 °C 1019.2 hPa North 8 km/h 12.9 km/h 35% 0 mm 488.1 W/m2
14:05 19.1 °C 2.9 °C 1018.8 hPa NNW 3.2 km/h 12.9 km/h 34% 0 mm 489.0 W/m2
14:10 19.5 °C 3.6 °C 1018.8 hPa WNW 8 km/h 12.9 km/h 35% 0 mm 488.1 W/m2
14:15 19.4 °C 2.7 °C 1018.8 hPa NW 9.7 km/h 12.9 km/h 33% 0 mm 484.5 W/m2
14:20 19.6 °C 2.9 °C 1018.8 hPa NW 1.6 km/h 12.9 km/h 33% 0 mm 484.5 W/m2
14:25 19.8 °C 3.5 °C 1018.8 hPa WNW 9.7 km/h 12.9 km/h 34% 0 mm 488.1 W/m2
14:30 19.8 °C 3.1 °C 1018.5 hPa WNW 4.8 km/h 11.3 km/h 33% 0 mm 489.0 W/m2
14:35 19.7 °C 2.9 °C 1018.5 hPa WNW 4.8 km/h 11.3 km/h 33% 0 mm 488.1 W/m2
14:40 19.4 °C 2.7 °C 1018.5 hPa WNW 3.2 km/h 9.7 km/h 33% 0 mm 488.1 W/m2
14:45 19.6 °C 3.3 °C 1018.5 hPa WNW 8 km/h 14.5 km/h 34% 0 mm 467.2 W/m2
14:50 19.9 °C 2.7 °C 1018.5 hPa WNW 3.2 km/h 11.3 km/h 32% 0 mm 486.3 W/m2
14:55 20.2 °C 2.6 °C 1018.5 hPa SW 3.9 km/h 7.4 km/h 31% 0 mm 488.1 W/m2
15:00 20.6 °C 2.4 °C 1018.2 hPa WSW 4.8 km/h 11.3 km/h 30% 0 mm 484.5 W/m2
15:05 20.6 °C 2.8 °C 1018.2 hPa West 4.8 km/h 11.3 km/h 31% 0 mm 482.7 W/m2
15:10 20.8 °C 3 °C 1018.2 hPa West 3.2 km/h 9.7 km/h 31% 0 mm 488.1 W/m2
15:15 20.7 °C 2.9 °C 1018.2 hPa North 4.8 km/h 9.7 km/h 31% 0 mm 488.1 W/m2
15:20 20.7 °C 2.9 °C 1018.2 hPa WNW 3.2 km/h 11.3 km/h 31% 0 mm 488.1 W/m2
15:25 20.9 °C 3.2 °C 1017.8 hPa WSW 1.6 km/h 8 km/h 31% 0 mm 488.1 W/m2
15:30 21.4 °C 3.1 °C 1017.8 hPa WSW 9.7 km/h 14.5 km/h 30% 0 mm 482.7 W/m2
15:35 20.8 °C 3.1 °C 1017.8 hPa NNW 11.3 km/h 14.5 km/h 31% 0 mm 487.2 W/m2
15:40 20.8 °C 3 °C 1017.8 hPa North 4.8 km/h 14.5 km/h 31% 0 mm 487.2 W/m2
15:45 20.8 °C 3.5 °C 1017.8 hPa North 9.7 km/h 12.9 km/h 32% 0 mm 482.7 W/m2
15:50 20.7 °C 4.7 °C 1017.5 hPa NW 7.7 km/h 21.2 km/h 35% 0 mm 484.5 W/m2
15:55 20.8 °C 4.4 °C 1017.5 hPa NNW 1.6 km/h 20.9 km/h 34% 0 mm 488.1 W/m2
16:00 20.7 °C 4.3 °C 1017.5 hPa WNW 9.7 km/h 14.5 km/h 34% 0 mm 486.3 W/m2
16:05 20.9 °C 4.1 °C 1017.5 hPa West 11.3 km/h 16.1 km/h 33% 0 mm 467.2 W/m2
16:10 20.8 °C 4.7 °C 1017.5 hPa WNW 9.2 km/h 14.8 km/h 35% 0 mm 472.7 W/m2
16:15 20.9 °C 4.4 °C 1017.5 hPa WNW 12.9 km/h 16.1 km/h 34% 0 mm 472.7 W/m2
16:20 20.7 °C 3.4 °C 1017.5 hPa West 9.7 km/h 19.3 km/h 32% 0 mm 467.2 W/m2
16:25 20.9 °C 4 °C 1017.5 hPa West 12.9 km/h 19.3 km/h 33% 0 mm 472.7 W/m2
16:30 20.9 °C 4.1 °C 1017.5 hPa WNW 11.3 km/h 19.3 km/h 33% 0 mm 472.7 W/m2
16:35 20.7 °C 5.5 °C 1017.5 hPa WNW 12.9 km/h 19.3 km/h 37% 0 mm 463.6 W/m2
16:40 20.6 °C 5.7 °C 1017.5 hPa West 12.9 km/h 20.9 km/h 38% 0 mm 460.8 W/m2
16:45 20.2 °C 5.8 °C 1017.5 hPa West 14.5 km/h 22.5 km/h 39% 0 mm 460.8 W/m2
16:50 19.8 °C 5.4 °C 1017.5 hPa West 19.3 km/h 24.1 km/h 39% 0 mm 455.4 W/m2
16:55 19.6 °C 6.3 °C 1017.5 hPa NW 17.9 km/h 20.4 km/h 42% 0 mm 451.7 W/m2
17:00 19.7 °C 6.7 °C 1017.5 hPa NW 8.4 km/h 16.7 km/h 43% 0 mm 451.7 W/m2
17:05 19.8 °C 7.2 °C 1017.5 hPa WNW 12.9 km/h 18.5 km/h 44% 0 mm 446.3 W/m2
17:10 19.6 °C 7.3 °C 1017.5 hPa West 14.3 km/h 18.5 km/h 45% 0 mm 446.3 W/m2
17:15 19.4 °C 7.8 °C 1017.5 hPa West 15.3 km/h 20.4 km/h 47% 0 mm 438.1 W/m2
17:20 19.2 °C 7.9 °C 1017.5 hPa West 12.6 km/h 16.7 km/h 48% 0 mm 448.1 W/m2
17:25 19.1 °C 8.4 °C 1017.8 hPa SW 15.1 km/h 20.4 km/h 50% 0 mm 425.3 W/m2
17:30 19.1 °C 9 °C 1017.8 hPa WSW 14.5 km/h 20.4 km/h 52% 0 mm 411.7 W/m2
17:35 18.8 °C 8.8 °C 1017.8 hPa West 18.8 km/h 21.2 km/h 52% 0 mm 389.8 W/m2
17:40 18.3 °C 8.8 °C 1017.8 hPa West 16.7 km/h 20.4 km/h 54% 0 mm 115.0 W/m2
17:45 18.2 °C 9.2 °C 1017.8 hPa WNW 17.2 km/h 20.4 km/h 56% 0 mm 101.4 W/m2
17:50 18.1 °C 9.4 °C 1017.8 hPa WNW 14 km/h 21.2 km/h 57% 0 mm 101.4 W/m2
17:55 18.1 °C 9.4 °C 1017.8 hPa West 12.2 km/h 17.7 km/h 57% 0 mm 69.5 W/m2
18:00 18.4 °C 9.4 °C 1017.8 hPa West 12.6 km/h 17.7 km/h 56% 0 mm 45.9 W/m2
18:05 18.3 °C 9.7 °C 1018.2 hPa WNW 12.6 km/h 14.8 km/h 57% 0 mm 33.1 W/m2
18:10 18.2 °C 9.5 °C 1017.8 hPa WNW 14.2 km/h 16.7 km/h 57% 0 mm 25.8 W/m2
18:15 18.1 °C 9.9 °C 1017.8 hPa West 14.3 km/h 14.3 km/h 59% 0 mm 25.8 W/m2
18:21 18.1 °C 9.9 °C 1017.8 hPa NW 13.5 km/h 18.5 km/h 59% 0 mm 33.1 W/m2
18:26 17.7 °C 9.8 °C 1018.2 hPa West 14.5 km/h 14.8 km/h 60% 0 mm 1.3 W/m2
18:31 17.4 °C 9.8 °C 1018.2 hPa West 11.7 km/h 16.7 km/h 61% 0 mm 0.0 W/m2
18:36 17.3 °C 10 °C 1018.2 hPa West 7.2 km/h 9.3 km/h 62% 0 mm 0.0 W/m2
18:41 17.5 °C 9.9 °C 1018.2 hPa WNW 8.7 km/h 13 km/h 61% 0 mm 0.0 W/m2
18:46 17.2 °C 9.6 °C 1018.2 hPa WSW 11.1 km/h 16.7 km/h 61% 0 mm 0.0 W/m2
18:51 17.1 °C 9.3 °C 1018.5 hPa WNW 10.8 km/h 16.7 km/h 60% 0 mm 0.0 W/m2
18:56 16.9 °C 9.1 °C 1018.5 hPa WNW 10.6 km/h 18.5 km/h 60% 0 mm 0.0 W/m2
19:01 16.8 °C 9.3 °C 1018.5 hPa NW 9 km/h 13 km/h 61% 0 mm 0.0 W/m2
19:06 16.7 °C 8.9 °C 1018.2 hPa WNW 10.1 km/h 14.8 km/h 60% 0 mm 0.0 W/m2
19:11 16.4 °C 8.6 °C 1018.2 hPa WNW 13.8 km/h 18.5 km/h 60% 0 mm 0.0 W/m2
19:16 16.1 °C 8.3 °C 1018.2 hPa WNW 8.9 km/h 16.7 km/h 60% 0 mm 0.0 W/m2
19:21 15.7 °C 8.2 °C 1018.5 hPa WNW 8.4 km/h 14.8 km/h 61% 0 mm 0.0 W/m2
19:26 15.4 °C 8.2 °C 1018.5 hPa WNW 9.8 km/h 11.1 km/h 62% 0 mm 0.0 W/m2
19:31 15.2 °C 8.2 °C 1018.5 hPa WNW 5.3 km/h 8.9 km/h 63% 0 mm 0.0 W/m2
19:36 14.9 °C 8.2 °C 1018.5 hPa West 4.5 km/h 7.4 km/h 64% 0 mm 0.0 W/m2
19:41 14.7 °C 8.2 °C 1018.5 hPa WNW 8.7 km/h 9.3 km/h 65% 0 mm 0.0 W/m2
19:46 14.6 °C 8.3 °C 1018.5 hPa WNW 5.6 km/h 11.1 km/h 66% 0 mm 0.0 W/m2
19:52 14.5 °C 8.2 °C 1018.5 hPa WNW 5.5 km/h 9.3 km/h 66% 0 mm 0.0 W/m2
19:57 14.3 °C 8.3 °C 1018.5 hPa NW 3.7 km/h 5.6 km/h 67% 0 mm 0.0 W/m2
20:02 14.3 °C 8.4 °C 1018.5 hPa NW 6.9 km/h 9.3 km/h 68% 0 mm 0.0 W/m2
20:07 14.2 °C 8.4 °C 1018.8 hPa WNW 4.3 km/h 5.6 km/h 68% 0 mm 0.0 W/m2
20:12 14.2 °C 8.6 °C 1018.5 hPa WNW 5.8 km/h 7.4 km/h 69% 0 mm 0.0 W/m2
20:17 14.1 °C 8.4 °C 1018.5 hPa WNW 5.5 km/h 9.3 km/h 69% 0 mm 0.0 W/m2
20:22 13.9 °C 8.3 °C 1018.8 hPa NW 9.2 km/h 14.2 km/h 69% 0 mm 0.0 W/m2
20:27 13.8 °C 8.2 °C 1018.5 hPa NNW 9 km/h 13 km/h 69% 0 mm 0.0 W/m2
20:32 13.7 °C 8.3 °C 1018.8 hPa NNW 7.9 km/h 14.8 km/h 70% 0 mm 0.0 W/m2
20:37 13.7 °C 8.3 °C 1018.8 hPa WNW 6.9 km/h 9.3 km/h 70% 0 mm 0.0 W/m2
20:42 13.6 °C 8.4 °C 1018.8 hPa NW 10 km/h 13 km/h 71% 0 mm 0.0 W/m2
20:47 13.6 °C 8.4 °C 1018.8 hPa NW 11.4 km/h 14.2 km/h 71% 0 mm 0.0 W/m2
20:52 13.6 °C 8.4 °C 1018.8 hPa NW 10.8 km/h 16.7 km/h 71% 0 mm 0.0 W/m2
20:57 13.5 °C 8.3 °C 1019.2 hPa WNW 9.8 km/h 13 km/h 71% 0 mm 0.0 W/m2
21:02 13.4 °C 8 °C 1019.2 hPa NW 11.1 km/h 13 km/h 70% 0 mm 0.0 W/m2
21:07 13.3 °C 8 °C 1019.2 hPa NNW 10.3 km/h 10.3 km/h 70% 0 mm 0.0 W/m2
21:12 13.2 °C 7.9 °C 1019.2 hPa NW 8.5 km/h 13 km/h 70% 0 mm 0.0 W/m2
21:17 13.1 °C 7.9 °C 1019.2 hPa NNW 5.3 km/h 14.2 km/h 71% 0 mm 0.0 W/m2
21:23 13 °C 7.9 °C 1019.2 hPa NW 6 km/h 9.3 km/h 71% 0 mm 0.0 W/m2
21:28 12.9 °C 7.8 °C 1019.5 hPa NW 8.2 km/h 11.1 km/h 71% 0 mm 0.0 W/m2
21:33 12.8 °C 7.8 °C 1019.5 hPa WNW 6.3 km/h 7.4 km/h 72% 0 mm 0.0 W/m2
21:38 12.7 °C 7.7 °C 1019.5 hPa North 7.6 km/h 13 km/h 72% 0 mm 0.0 W/m2
21:43 12.6 °C 7.8 °C 1019.5 hPa NW 5 km/h 9.3 km/h 73% 0 mm 0.0 W/m2
21:48 12.4 °C 7.7 °C 1019.5 hPa WNW 4.8 km/h 7.4 km/h 73% 0 mm 0.0 W/m2
21:53 12.4 °C 7.7 °C 1019.5 hPa WNW 6.3 km/h 11.1 km/h 73% 0 mm 0.0 W/m2
21:58 12.3 °C 7.8 °C 1019.5 hPa NW 4.5 km/h 7.4 km/h 74% 0 mm 0.0 W/m2
22:03 12.2 °C 7.7 °C 1019.5 hPa North 3.5 km/h 5.6 km/h 74% 0 mm 0.0 W/m2
22:08 12.1 °C 7.6 °C 1019.5 hPa NW 5 km/h 7.4 km/h 74% 0 mm 0.0 W/m2
22:13 12 °C 7.7 °C 1019.5 hPa WNW 3.4 km/h 7.4 km/h 75% 0 mm 0.0 W/m2
22:18 11.9 °C 7.6 °C 1019.5 hPa WNW 3.1 km/h 7.4 km/h 75% 0 mm 0.0 W/m2
22:23 11.9 °C 7.6 °C 1019.5 hPa NW 3.9 km/h 7.1 km/h 75% 0 mm 0.0 W/m2
22:28 11.8 °C 7.6 °C 1019.5 hPa WNW 3.5 km/h 3.7 km/h 75% 0 mm 0.0 W/m2
22:33 11.7 °C 7.4 °C 1019.5 hPa NW 1.3 km/h 1.9 km/h 75% 0 mm 0.0 W/m2
22:38 11.6 °C 7.3 °C 1019.5 hPa NNW 1.4 km/h 3.7 km/h 75% 0 mm 0.0 W/m2
22:43 11.4 °C 7.2 °C 1019.5 hPa NNW 1.4 km/h 3.7 km/h 75% 0 mm 0.0 W/m2
22:49 11.4 °C 7.3 °C 1019.5 hPa WNW 1.9 km/h 3.7 km/h 76% 0 mm 0.0 W/m2
22:54 11.3 °C 7.2 °C 1019.9 hPa WNW 2.1 km/h 3.7 km/h 76% 0 mm 0.0 W/m2
22:59 11.3 °C 7.2 °C 1019.5 hPa NW 0.2 km/h 3.7 km/h 76% 0 mm 0.0 W/m2
23:04 11.2 °C 7.1 °C 1019.5 hPa Calm     76% 0 mm 0.0 W/m2
23:09 11.1 °C 7 °C 1019.5 hPa Calm     76% 0 mm 0.0 W/m2
23:14 10.9 °C 7.1 °C 1019.5 hPa Calm     77% 0 mm 0.0 W/m2
23:19 10.8 °C 6.9 °C 1019.9 hPa NW 1.9 km/h 3.7 km/h 77% 0 mm 0.0 W/m2
23:24 10.8 °C 6.9 °C 1019.9 hPa Calm     77% 0 mm 0.0 W/m2
23:29 10.7 °C 7 °C 1019.9 hPa WNW 2.1 km/h 3.7 km/h 78% 0 mm 0.0 W/m2
23:34 10.6 °C 6.9 °C 1019.9 hPa NNW 0.8 km/h 1.9 km/h 78% 0 mm 0.0 W/m2
23:39 10.6 °C 7.1 °C 1019.9 hPa NNW 0.6 km/h 3.7 km/h 79% 0 mm 0.0 W/m2
23:44 10.4 °C 6.9 °C 1019.9 hPa Calm     79% 0 mm 0.0 W/m2
23:49 10.4 °C 6.9 °C 1019.9 hPa Calm     79% 0 mm 0.0 W/m2
23:54 10.4 °C 6.9 °C 1019.9 hPa Calm     79% 0 mm 0.0 W/m2
23:59 10.4 °C 6.9 °C 1019.9 hPa Calm     79% 0 mm 0.0 W/m2
Juneau County Weather
Compliments of Weather Underground - 3.25 mb